• Join FlightAware (Why Join?)
  • Login
  • US Flag 
02:09AM EST


 

Airport Tracker/Info


-or-


 

Live Flight TrackerFlight Track Log ✈ CFH21 ✈ 22-Jul-2013 ✈ YOEN / OPI - YPDN / DRW

Flight Track Log - Related Links

Times and Time Zones

All times are in EDT time to prevent confusion due to time zone crossing. See the CFH21 flight status page for this flight to view local times or setup timezone preferences in your user account.

Time Position Orientation Groundspeed Altitude Reporting Facility
EDT Latitude Longitude Course Direction KTS MPH feet Rate Location/Type
02:12AM -12.3614 132.8959 249° West 179 206 8,000  Level Aus ATC (RADAR)
02:12AM -12.3718 132.8674 249° West 182 209 9,000 1,560 Climbing Aus ATC (RADAR)
02:13AM -12.3886 132.8235 249° West 182 209 10,400 1,500 Climbing Aus ATC (RADAR)
02:14AM -12.4044 132.7743 252° West 184 212 11,900 1,500 Climbing Aus ATC (RADAR)
02:15AM -12.4158 132.7417 250° West 183 211 12,900 1,440 Climbing Aus ATC (RADAR)
02:15AM -12.4249 132.7149 251° West 175 201 13,700 1,320 Climbing Aus ATC (RADAR)
02:16AM -12.4410 132.6712 249° West 180 207 14,900 1,200 Climbing Aus ATC (RADAR)
02:17AM -12.4541 132.6296 252° West 185 213 15,800 420 Climbing Aus ATC (RADAR)
02:19AM -12.4911 132.5270 250° West 233 268 16,000 60 Climbing Aus ATC (RADAR)
02:20AM -12.5114 132.4683 250° West 239 275 16,000  Level Aus ATC (RADAR)
02:20AM -12.5272 132.4203 251° West 239 275 16,000  Level Aus ATC (RADAR)
02:21AM -12.5402 132.3830 250° West 239 275 16,000  Level Aus ATC (RADAR)
02:22AM -12.5577 132.3344 250° West 244 281 16,000  Level Aus ATC (RADAR)
02:23AM -12.5816 132.2646 251° West 240 276 16,000  Level Aus ATC (RADAR)
02:24AM -12.5771 132.2149 275° West 236 272 16,000  Level Aus ATC (RADAR)
02:24AM -12.5636 132.1729 288° West 230 265 16,000  Level Aus ATC (RADAR)
02:25AM -12.5510 132.1248 285° West 230 265 16,000  Level Aus ATC (RADAR)
02:26AM -12.5435 132.0928 283° West 229 264 16,000  Level Aus ATC (RADAR)
02:26AM -12.5343 132.0557 284° West 227 261 16,000  Level Aus ATC (RADAR)
02:27AM -12.5195 131.9971 284° West 229 264 16,000  Level Aus ATC (RADAR)
02:28AM -12.5076 131.9487 284° West 231 266 16,000  Level Aus ATC (RADAR)
02:28AM -12.4987 131.9110 284° West 231 266 16,000  Level Aus ATC (RADAR)
02:29AM -12.4896 131.8735 284° West 230 265 16,000  Level Aus ATC (RADAR)
02:30AM -12.4766 131.8197 284° West 232 267 16,000 -60 Level Aus ATC (RADAR)
02:31AM -12.4608 131.7544 284° West 233 268 15,900 -780 Descending Aus ATC (RADAR)
02:32AM -12.4516 131.6875 278° West 256 295 14,600 -1,380 Descending Aus ATC (RADAR)
02:32AM -12.4475 131.6439 276° West 260 299 13,900 -1,320 Descending Aus ATC (RADAR)
02:33AM -12.4382 131.5635 277° West 257 296 12,400 -1,380 Descending Aus ATC (RADAR)
02:34AM -12.4303 131.4904 276° West 253 291 11,100 -900 Descending Aus ATC (RADAR)
02:35AM -12.4240 131.4379 277° West 243 280 10,900 -720 Descending Aus ATC (RADAR)
02:36AM -12.4190 131.3980 277° West 239 275 10,200 -1,320 Descending Aus ATC (RADAR)
02:36AM -12.4121 131.3381 277° West 250 288 9,100 -1,500 Descending Aus ATC (RADAR)
02:37AM -12.4039 131.2716 277° West 251 289 7,600 -1,200 Descending Aus ATC (RADAR)
02:38AM -12.3964 131.2074 277° West 240 276 6,900 -480 Descending Aus ATC (RADAR)
02:39AM -12.3929 131.1741 276° West 234 269 7,000 60 Climbing Aus ATC (RADAR)
02:39AM -12.3886 131.1369 277° West 225 259 7,000  Level Aus ATC (RADAR)
02:40AM -12.3829 131.0900 277° West 219 252 7,000  Level Aus ATC (RADAR)
02:41AM -12.3788 131.0536 277° West 218 251 7,000  Level Aus ATC (RADAR)
02:41AM -12.3731 131.0170 279° West 224 258 7,000  Level Aus ATC (RADAR)
02:42AM -12.3608 130.9824 290° West 220 253 7,000  Level Aus ATC (RADAR)
02:42AM -12.3478 130.9479 291° West 218 251 7,000  Level Aus ATC (RADAR)
02:43AM -12.3302 130.8927 288° West 220 253 7,000 -480 Level Aus ATC (RADAR)
02:44AM -12.3083 130.8296 290° West 235 270 6,100 -1,140 Descending Aus ATC (RADAR)
02:45AM -12.2882 130.7726 290° West 248 285 5,000 -1,020 Descending Aus ATC (RADAR)
02:46AM -12.2762 130.7356 288° West 230 265 4,700 -780 Descending Aus ATC (RADAR)
02:47AM -12.2826 130.6879 262° West 222 255 3,900 -960 Descending Aus ATC (RADAR)
02:47AM -12.3300 130.6736 196° South 207 238 3,100 -900 Descending Aus ATC (RADAR)
02:49AM -12.3661 130.7251 126° Southeast 199 229 2,100 -600 Descending Aus ATC (RADAR)
02:49AM -12.3762 130.7670 104° East 176 203 2,000 -420 Descending Aus ATC (RADAR)
02:50AM -12.3883 130.8016 110° East 154 177 1,500 -720 Descending Aus ATC (RADAR)
02:51AM -12.3956 130.8234 109° East 140 161 1,000 -780 Descending Aus ATC (RADAR)
02:52AM -12.4041 130.8484 109° East 121 139 500 -720 Descending Aus ATC (RADAR)
02:55AM -12.4146 130.8768 282° West  Level FlightAware Approximate
03:02AM -12.4147 130.8767 282° West  Level Estimated
03:03AM -12.4146 130.8768 282° West  Level FlightAware Approximate